createdAt,value
2023-03-18T00:00:21.987Z,96568.63
2023-03-18T00:04:22.632Z,96568.47
2023-03-18T00:08:24.117Z,96550.56
2023-03-18T00:12:28.104Z,96589.38
2023-03-18T00:16:28.766Z,96596.59
2023-03-18T00:20:38.888Z,96588.53
2023-03-18T00:24:39.949Z,96587.44
2023-03-18T00:28:43.114Z,96592.69
2023-03-18T00:32:44.296Z,96603.00
2023-03-18T00:36:47.901Z,96603.78
2023-03-18T00:40:53.685Z,96608.97
2023-03-18T00:44:56.880Z,96606.16
2023-03-18T00:49:00.562Z,96607.03
2023-03-18T00:53:00.855Z,96605.56
2023-03-18T00:57:01.858Z,96609.06
2023-03-18T01:01:05.660Z,96604.44
2023-03-18T01:05:07.328Z,96605.28
2023-03-18T01:09:11.969Z,96600.84
2023-03-18T01:13:13.554Z,96604.50
2023-03-18T01:17:18.340Z,96604.72
2023-03-18T01:21:23.183Z,96601.47
2023-03-18T01:25:30.887Z,96603.13
2023-03-18T01:29:31.797Z,96601.50
2023-03-18T01:33:40.523Z,96604.38
2023-03-18T01:37:42.234Z,96595.53
2023-03-18T01:41:46.426Z,96607.66
2023-03-18T01:45:54.488Z,96607.91
2023-03-18T01:50:00.176Z,96616.78
2023-03-18T01:54:07.563Z,96612.53
2023-03-18T01:58:13.293Z,96616.19
2023-03-18T02:02:18.638Z,96616.59
2023-03-18T02:06:22.237Z,96618.22
2023-03-18T02:10:33.775Z,96608.94
2023-03-18T02:14:34.575Z,96617.81
2023-03-18T02:18:43.779Z,96558.66
2023-03-18T02:22:53.616Z,96626.09
2023-03-18T02:27:01.656Z,96641.69
2023-03-18T02:31:18.498Z,96621.47
2023-03-18T02:35:20.755Z,96624.31
2023-03-18T02:39:22.393Z,96629.56
2023-03-18T02:43:30.391Z,96628.34
2023-03-18T02:47:37.084Z,96638.84
2023-03-18T02:51:39.725Z,96630.75
2023-03-18T02:55:41.763Z,96616.63
2023-03-18T02:59:43.744Z,96630.97
2023-03-18T03:03:47.289Z,96652.19
2023-03-18T03:07:47.586Z,96649.13
2023-03-18T03:11:50.194Z,96650.94
2023-03-18T03:15:56.082Z,96658.44
2023-03-18T03:19:59.362Z,96659.03
2023-03-18T03:24:00.407Z,96629.94
2023-03-18T03:28:01.240Z,96664.09
2023-03-18T03:32:02.292Z,96665.50
2023-03-18T03:36:05.696Z,96667.13
2023-03-18T03:40:08.368Z,96674.38
2023-03-18T03:44:09.348Z,96670.16
2023-03-18T03:48:14.206Z,96670.38
2023-03-18T03:52:20.789Z,96669.53
2023-03-18T03:56:26.182Z,96670.53
2023-03-18T04:00:27.778Z,96672.34
2023-03-18T04:04:28.377Z,96671.97
2023-03-18T04:08:32.648Z,96680.44
2023-03-18T04:12:33.555Z,96677.63
2023-03-18T04:16:35.917Z,96649.31
2023-03-18T04:20:38.168Z,96676.22
2023-03-18T04:24:49.865Z,96674.00
2023-03-18T04:28:50.394Z,96680.03
2023-03-18T04:32:52.060Z,96679.41
2023-03-18T04:36:52.875Z,96695.38
2023-03-18T04:40:56.520Z,96688.91
2023-03-18T04:44:58.005Z,96696.59
2023-03-18T04:49:01.056Z,96694.16
2023-03-18T04:53:01.904Z,96696.56
2023-03-18T04:57:07.790Z,96703.63
2023-03-18T05:01:13.999Z,96708.66
2023-03-18T05:05:15.071Z,96703.22
2023-03-18T05:09:21.693Z,96696.72
2023-03-18T05:13:25.111Z,96693.69
2023-03-18T05:17:26.867Z,96695.28
2023-03-18T05:21:31.624Z,96689.06
2023-03-18T05:25:34.298Z,96692.53
2023-03-18T05:29:38.496Z,96688.50
2023-03-18T05:33:45.218Z,96688.09
2023-03-18T05:37:46.811Z,96693.56
2023-03-18T05:41:48.086Z,96689.34
2023-03-18T05:45:58.577Z,96688.75
2023-03-18T05:50:16.681Z,96692.38
2023-03-18T05:54:18.993Z,96690.56
2023-03-18T05:58:19.645Z,96695.38
2023-03-18T06:02:27.144Z,96703.28
2023-03-18T06:06:27.966Z,96702.25
2023-03-18T06:10:29.460Z,96706.09
2023-03-18T06:14:31.564Z,96705.06
2023-03-18T06:18:38.107Z,96709.03
2023-03-18T06:22:38.964Z,96681.03
2023-03-18T06:26:39.978Z,96707.19
2023-03-18T06:30:40.785Z,96707.06
2023-03-18T06:34:47.440Z,96709.19
2023-03-18T06:38:48.451Z,96713.47
2023-03-18T06:42:50.263Z,96716.34
2023-03-18T06:47:22.171Z,96720.16
2023-03-18T06:51:33.713Z,96727.81
2023-03-18T06:55:35.132Z,96716.38
2023-03-18T06:59:37.722Z,96730.03
2023-03-18T07:03:39.188Z,96732.59
2023-03-18T07:07:44.938Z,96732.75
2023-03-18T07:11:46.190Z,96723.69
2023-03-18T07:15:51.107Z,96730.59
2023-03-18T07:19:52.040Z,96727.59
2023-03-18T07:23:55.782Z,96728.31
2023-03-18T07:27:59.759Z,96742.56
2023-03-18T07:31:59.955Z,96751.72
2023-03-18T07:36:00.594Z,96751.34
2023-03-18T07:40:04.170Z,96748.16
2023-03-18T07:44:05.154Z,96751.78
2023-03-18T07:48:06.193Z,96755.41
2023-03-18T07:52:07.001Z,96754.03
2023-03-18T07:56:11.811Z,96758.75
2023-03-18T08:00:16.110Z,96757.81
2023-03-18T08:04:16.607Z,96760.59
2023-03-18T08:08:17.107Z,96759.88
2023-03-18T08:12:20.293Z,96756.94
2023-03-18T08:16:21.033Z,96777.81
2023-03-18T08:20:23.248Z,96781.22
2023-03-18T08:24:24.686Z,96780.56
2023-03-18T08:28:28.989Z,96775.09
2023-03-18T08:32:29.475Z,96779.91
2023-03-18T08:36:30.319Z,96776.00
2023-03-18T08:40:31.165Z,96786.88
2023-03-18T08:44:34.800Z,96780.09
2023-03-18T08:48:38.445Z,96776.72
2023-03-18T08:52:41.552Z,96774.41
2023-03-18T08:56:43.723Z,96776.66
2023-03-18T09:00:48.286Z,96778.41
2023-03-18T09:04:50.537Z,96774.28
2023-03-18T09:08:50.948Z,96769.72
2023-03-18T09:12:52.570Z,96767.88
2023-03-18T09:16:55.820Z,96777.25
2023-03-18T09:20:56.748Z,96763.56
2023-03-18T09:24:57.211Z,96774.50
2023-03-18T09:28:57.706Z,96776.91
2023-03-18T09:33:01.906Z,96773.22
2023-03-18T09:37:02.543Z,96768.53
2023-03-18T09:41:21.579Z,96760.91
2023-03-18T09:45:31.662Z,96760.97
2023-03-18T09:50:06.817Z,96764.66
2023-03-18T09:54:16.034Z,96757.44
2023-03-18T09:58:31.442Z,96758.50
2023-03-18T10:02:41.051Z,96754.59
2023-03-18T10:06:48.526Z,96766.31
2023-03-18T10:10:52.149Z,96757.81
2023-03-18T10:15:10.334Z,96750.91
2023-03-18T10:19:12.928Z,96757.66
2023-03-18T10:23:35.071Z,96756.44
2023-03-18T10:27:50.355Z,96749.16
2023-03-18T10:32:11.025Z,96759.06
2023-03-18T10:36:20.738Z,96749.72
2023-03-18T10:40:38.559Z,96743.75
2023-03-18T10:44:45.939Z,96739.16
2023-03-18T10:48:54.488Z,96734.59
2023-03-18T10:53:07.210Z,96738.13
2023-03-18T10:57:17.076Z,96728.88
2023-03-18T11:01:23.370Z,96715.00
2023-03-18T11:05:29.183Z,96719.16
2023-03-18T11:09:36.470Z,96723.78
2023-03-18T11:13:41.449Z,96710.63
2023-03-18T11:17:43.503Z,96717.34
2023-03-18T11:21:45.061Z,96709.97
2023-03-18T11:25:49.637Z,96697.06
2023-03-18T11:30:01.279Z,96690.34
2023-03-18T11:34:03.322Z,96698.06
2023-03-18T11:38:07.432Z,96672.63
2023-03-18T11:42:22.341Z,96680.81
2023-03-18T11:46:29.503Z,96676.84
2023-03-18T11:50:42.463Z,96674.16
2023-03-18T11:55:12.017Z,96656.38
2023-03-18T11:59:39.993Z,96654.34
2023-03-18T12:04:37.895Z,96661.88
2023-03-18T12:08:57.123Z,96659.31
2023-03-18T12:13:22.647Z,96661.53
2023-03-18T12:17:41.159Z,96659.59
2023-03-18T12:22:11.787Z,96641.19
2023-03-18T12:26:21.225Z,96646.25
2023-03-18T12:30:43.395Z,96635.34
2023-03-18T12:35:09.316Z,96644.16
2023-03-18T12:39:53.452Z,96618.00
2023-03-18T12:44:11.902Z,96627.16
2023-03-18T12:48:21.940Z,96628.63
2023-03-18T12:52:35.996Z,96613.59
2023-03-18T12:56:51.124Z,96623.81
2023-03-18T13:00:59.960Z,96611.88
2023-03-18T13:05:07.181Z,96614.97
2023-03-18T13:09:22.018Z,96606.56
2023-03-18T13:13:27.834Z,96591.59
2023-03-18T13:17:36.830Z,96611.03
2023-03-18T13:21:46.159Z,96606.56
2023-03-18T13:26:07.144Z,96597.13
2023-03-18T13:30:24.083Z,96592.81
2023-03-18T13:34:57.720Z,96608.72
2023-03-18T13:39:29.742Z,96605.28
2023-03-18T13:43:32.842Z,96592.72
2023-03-18T13:47:41.368Z,96604.81
2023-03-18T13:51:56.418Z,96606.47
2023-03-18T13:56:06.479Z,96598.81
2023-03-18T14:00:33.402Z,96587.72
2023-03-18T14:04:50.469Z,96602.66
2023-03-18T14:08:54.120Z,96592.72
2023-03-18T14:12:54.575Z,96587.81
2023-03-18T14:16:56.431Z,96588.84
2023-03-18T14:21:05.212Z,96571.56
2023-03-18T14:25:37.929Z,96554.75
2023-03-18T14:29:43.687Z,96560.50
2023-03-18T14:34:01.851Z,96564.72
2023-03-18T14:38:17.067Z,96564.91
2023-03-18T14:42:32.256Z,96566.63
2023-03-18T14:46:39.227Z,96547.88
2023-03-18T14:50:45.426Z,96564.50
2023-03-18T14:54:49.743Z,96572.16
2023-03-18T14:58:53.445Z,96558.38
2023-03-18T15:03:03.894Z,96565.41
2023-03-18T15:07:11.257Z,96560.69
2023-03-18T15:11:16.599Z,96553.66
2023-03-18T15:15:19.893Z,96544.00
2023-03-18T15:19:22.135Z,96554.53
2023-03-18T15:23:32.292Z,96551.78
2023-03-18T15:27:38.330Z,96564.63
2023-03-18T15:31:46.254Z,96563.25
2023-03-18T15:35:48.734Z,96563.56
2023-03-18T15:39:48.805Z,96573.28
2023-03-18T15:43:54.068Z,96578.06
2023-03-18T15:47:54.406Z,96566.31
2023-03-18T15:52:03.188Z,96575.38
2023-03-18T15:56:19.860Z,96553.84
2023-03-18T16:00:24.546Z,96571.31
2023-03-18T16:04:25.727Z,96568.22
2023-03-18T16:08:27.345Z,96548.75
2023-03-18T16:12:32.520Z,96574.97
2023-03-18T16:16:36.950Z,96573.81
2023-03-18T16:20:38.077Z,96567.13
2023-03-18T16:24:41.877Z,96572.44
2023-03-18T16:28:43.920Z,96563.34
2023-03-18T16:32:47.431Z,96573.16
2023-03-18T16:36:50.885Z,96584.47
2023-03-18T16:40:53.792Z,96564.06
2023-03-18T16:44:55.028Z,96581.00
2023-03-18T16:48:58.496Z,96590.91
2023-03-18T16:52:58.832Z,96600.03
2023-03-18T16:57:02.225Z,96599.00
2023-03-18T17:01:04.992Z,96606.81
2023-03-18T17:05:10.086Z,96606.44
2023-03-18T17:09:10.318Z,96607.25
2023-03-18T17:13:18.485Z,96616.72
2023-03-18T17:17:28.235Z,96602.47
2023-03-18T17:21:33.542Z,96613.00
2023-03-18T17:25:34.668Z,96607.91
2023-03-18T17:29:34.914Z,96610.06
2023-03-18T17:33:37.912Z,96594.78
2023-03-18T17:37:40.558Z,96618.97
2023-03-18T17:41:40.784Z,96618.84
2023-03-18T17:45:41.023Z,96602.56
2023-03-18T17:49:41.884Z,96618.41
2023-03-18T17:53:51.426Z,96627.06
2023-03-18T17:57:52.181Z,96631.38
2023-03-18T18:01:54.002Z,96636.72
2023-03-18T18:05:55.366Z,96623.63
2023-03-18T18:10:01.193Z,96617.75
2023-03-18T18:14:13.467Z,96624.72
2023-03-18T18:18:40.137Z,96636.19
2023-03-18T18:23:00.144Z,96642.84
2023-03-18T18:27:14.686Z,96643.91
2023-03-18T18:31:17.666Z,96621.50
2023-03-18T18:35:21.285Z,96633.78
2023-03-18T18:39:21.900Z,96642.03
2023-03-18T18:43:26.042Z,96646.03
2023-03-18T18:47:26.101Z,96642.28
2023-03-18T18:51:28.467Z,96644.69
2023-03-18T18:55:41.237Z,96648.69
2023-03-18T18:59:53.695Z,96639.63
2023-03-18T19:04:00.233Z,96643.34
2023-03-18T19:08:07.024Z,96638.78
2023-03-18T19:12:23.831Z,96627.81
2023-03-18T19:16:45.733Z,96631.50
2023-03-18T19:20:52.954Z,96639.47
2023-03-18T19:24:53.070Z,96639.41
2023-03-18T19:28:59.356Z,96613.44
2023-03-18T19:33:02.503Z,96636.63
2023-03-18T19:37:06.040Z,96605.50
2023-03-18T19:41:07.123Z,96624.59
2023-03-18T19:45:11.793Z,96628.31
2023-03-18T19:49:26.406Z,96640.31
2023-03-18T19:53:30.369Z,96640.06
2023-03-18T19:57:34.075Z,96639.47
2023-03-18T20:01:34.253Z,96648.66
2023-03-18T20:05:37.051Z,96656.56
2023-03-18T20:09:37.328Z,96660.78
2023-03-18T20:13:37.411Z,96663.69
2023-03-18T20:17:41.624Z,96672.28
2023-03-18T20:21:45.059Z,96675.25
2023-03-18T20:25:48.330Z,96665.22
2023-03-18T20:29:49.997Z,96671.69
2023-03-18T20:33:50.894Z,96662.09
2023-03-18T20:37:53.758Z,96657.53
2023-03-18T20:41:53.968Z,96648.75
2023-03-18T20:45:55.767Z,96683.50
2023-03-18T20:49:55.857Z,96684.94
2023-03-18T20:53:58.566Z,96692.78
2023-03-18T20:57:58.866Z,96692.94
2023-03-18T21:01:59.012Z,96694.63
2023-03-18T21:06:03.572Z,96694.63
2023-03-18T21:10:06.906Z,96685.06
2023-03-18T21:14:07.250Z,96694.53
2023-03-18T21:18:07.827Z,96617.72
2023-03-18T21:22:08.163Z,96698.09
2023-03-18T21:26:10.907Z,96693.13
2023-03-18T21:30:13.891Z,96699.56
2023-03-18T21:34:14.573Z,96689.81
2023-03-18T21:38:14.677Z,96695.41
2023-03-18T21:42:24.819Z,96698.69
2023-03-18T21:46:29.853Z,96701.69
2023-03-18T21:50:30.086Z,96691.38
2023-03-18T21:54:30.653Z,96688.47
2023-03-18T21:58:33.334Z,96684.50
2023-03-18T22:02:36.651Z,96687.66
2023-03-18T22:06:37.372Z,96691.66
2023-03-18T22:10:37.829Z,96690.81
2023-03-18T22:14:40.456Z,96698.97
2023-03-18T22:18:40.554Z,96696.69
2023-03-18T22:22:40.629Z,96697.91
2023-03-18T22:26:40.682Z,96699.44
2023-03-18T22:30:46.553Z,96701.81
2023-03-18T22:34:46.633Z,96707.72
2023-03-18T22:38:47.271Z,96695.41
2023-03-18T22:42:48.904Z,96696.22
2023-03-18T22:46:51.627Z,96704.63
2023-03-18T22:50:53.688Z,96705.66
2023-03-18T22:54:58.511Z,96676.44
2023-03-18T22:58:58.611Z,96716.81
2023-03-18T23:03:01.777Z,96716.63
2023-03-18T23:07:01.980Z,96710.06
2023-03-18T23:11:04.381Z,96669.09
2023-03-18T23:15:05.735Z,96714.97
2023-03-18T23:19:08.342Z,96703.47
2023-03-18T23:23:08.511Z,96705.53
2023-03-18T23:27:09.313Z,96704.63
2023-03-18T23:31:09.700Z,96700.81
2023-03-18T23:35:13.459Z,96705.84
2023-03-18T23:39:13.622Z,96694.34
2023-03-18T23:43:13.707Z,96716.56
2023-03-18T23:47:15.983Z,96719.78
2023-03-18T23:51:18.871Z,96706.91
2023-03-18T23:55:33.601Z,96725.78
2023-03-18T23:59:34.902Z,96729.44
